createdAt,value
2018-07-30T00:01:24.163Z,97818.33
2018-07-30T00:03:52.418Z,97809.78
2018-07-30T00:06:20.614Z,97814.13
2018-07-30T00:08:48.882Z,97816.36
2018-07-30T00:11:17.078Z,97815.34
2018-07-30T00:13:45.354Z,97812.56
2018-07-30T00:16:13.597Z,97812.87
2018-07-30T00:18:41.896Z,97817.54
2018-07-30T00:21:10.170Z,97823.38
2018-07-30T00:23:38.437Z,97818.58
2018-07-30T00:26:06.917Z,97819.93
2018-07-30T00:28:35.106Z,97821.21
2018-07-30T00:31:03.386Z,97821.75
2018-07-30T00:33:31.558Z,97826.16
2018-07-30T00:36:00.010Z,97817.05
2018-07-30T00:38:28.525Z,97824.23
2018-07-30T00:40:56.695Z,97822.38
2018-07-30T00:43:25.180Z,97833.63
2018-07-30T00:45:53.372Z,97827.13
2018-07-30T00:48:21.552Z,97824.09
2018-07-30T00:50:49.801Z,97826.45
2018-07-30T00:53:18.011Z,97828.16
2018-07-30T00:55:46.177Z,97832.38
2018-07-30T00:58:14.401Z,97829.08
2018-07-30T01:00:42.677Z,97830.59
2018-07-30T01:03:10.868Z,97829.80
2018-07-30T01:05:39.043Z,97834.20
2018-07-30T01:08:07.307Z,97829.80
2018-07-30T01:10:35.882Z,97833.84
2018-07-30T01:13:04.075Z,97831.74
2018-07-30T01:15:32.363Z,97836.97
2018-07-30T01:18:00.971Z,97836.55
2018-07-30T01:20:29.110Z,97840.59
2018-07-30T01:22:57.373Z,97834.86
2018-07-30T01:25:25.638Z,97840.80
2018-07-30T01:27:53.814Z,97840.80
2018-07-30T01:30:22.037Z,97839.31
2018-07-30T01:32:50.215Z,97843.98
2018-07-30T01:35:18.409Z,97839.61
2018-07-30T01:37:46.593Z,97844.73
2018-07-30T01:40:14.781Z,97842.13
2018-07-30T01:42:42.978Z,97843.09
2018-07-30T01:45:11.299Z,97847.17
2018-07-30T01:47:39.462Z,97841.92
2018-07-30T01:50:07.661Z,97842.63
2018-07-30T01:52:35.867Z,97840.45
2018-07-30T01:55:04.463Z,97843.66
2018-07-30T01:57:33.268Z,97841.03
2018-07-30T02:00:01.528Z,97844.73
2018-07-30T02:02:29.784Z,97847.36
2018-07-30T02:04:59.758Z,97852.61
2018-07-30T02:07:27.936Z,97846.95
2018-07-30T02:09:56.159Z,97852.39
2018-07-30T02:12:24.440Z,97855.20
2018-07-30T02:14:52.620Z,97855.39
2018-07-30T02:17:20.898Z,97857.95
2018-07-30T02:19:49.223Z,97861.23
2018-07-30T02:22:17.438Z,97859.55
2018-07-30T02:24:45.710Z,97866.19
2018-07-30T02:27:14.026Z,97868.47
2018-07-30T02:29:42.274Z,97868.33
2018-07-30T02:32:10.566Z,97871.27
2018-07-30T02:34:38.764Z,97872.73
2018-07-30T02:37:06.970Z,97870.30
2018-07-30T02:39:35.154Z,97865.17
2018-07-30T02:42:03.416Z,97868.31
2018-07-30T02:44:31.554Z,97869.11
2018-07-30T02:47:00.028Z,97870.99
2018-07-30T02:49:28.283Z,97867.33
2018-07-30T02:51:56.561Z,97866.58
2018-07-30T02:54:25.083Z,97869.97
2018-07-30T02:56:53.234Z,97866.48
2018-07-30T02:59:21.746Z,97870.08
2018-07-30T03:01:49.933Z,97865.09
2018-07-30T03:04:18.153Z,97866.77
2018-07-30T03:06:46.351Z,97867.10
2018-07-30T03:09:14.544Z,97871.16
2018-07-30T03:11:42.745Z,97870.61
2018-07-30T03:14:11.037Z,97873.72
2018-07-30T03:16:39.213Z,97877.58
2018-07-30T03:19:08.203Z,97883.52
2018-07-30T03:24:05.037Z,97890.17
2018-07-30T03:26:33.268Z,97886.99
2018-07-30T03:29:01.515Z,97887.58
2018-07-30T03:31:29.692Z,97884.74
2018-07-30T03:33:57.918Z,97883.70
2018-07-30T03:36:26.143Z,97893.84
2018-07-30T03:38:54.328Z,97886.02
2018-07-30T03:41:22.590Z,97891.09
2018-07-30T03:43:50.775Z,97889.64
2018-07-30T03:46:19.035Z,97891.34
2018-07-30T03:48:47.323Z,97899.42
2018-07-30T03:51:15.588Z,97894.80
2018-07-30T03:53:44.088Z,97900.36
2018-07-30T03:56:18.922Z,97901.31
2018-07-30T03:58:47.110Z,97900.61
2018-07-30T04:01:15.611Z,97902.25
2018-07-30T04:03:43.798Z,97905.64
2018-07-30T04:06:12.047Z,97901.34
2018-07-30T04:08:40.430Z,97914.75
2018-07-30T04:11:08.617Z,97903.58
2018-07-30T04:13:37.053Z,97908.35
2018-07-30T04:16:05.465Z,97905.80
2018-07-30T04:18:33.657Z,97910.63
2018-07-30T04:21:01.864Z,97901.28
2018-07-30T04:23:30.161Z,97908.59
2018-07-30T04:25:58.356Z,97906.58
2018-07-30T04:28:26.543Z,97908.85
2018-07-30T04:30:54.801Z,97917.41
2018-07-30T04:33:22.913Z,97922.89
2018-07-30T04:35:51.118Z,97922.81
2018-07-30T04:38:19.610Z,97923.67
2018-07-30T04:40:47.886Z,97913.44
2018-07-30T04:43:16.058Z,97915.78
2018-07-30T04:45:44.258Z,97920.76
2018-07-30T04:48:12.442Z,97920.95
2018-07-30T04:50:40.832Z,97932.25
2018-07-30T04:53:09.084Z,97932.33
2018-07-30T04:55:37.366Z,97927.30
2018-07-30T04:58:05.905Z,97927.22
2018-07-30T05:00:34.174Z,97928.27
2018-07-30T05:03:05.796Z,97931.10
2018-07-30T05:05:35.290Z,97921.63
2018-07-30T05:08:03.776Z,97934.09
2018-07-30T05:10:31.946Z,97936.34
2018-07-30T05:13:00.435Z,97935.86
2018-07-30T05:15:28.646Z,97940.75
2018-07-30T05:17:56.862Z,97940.02
2018-07-30T05:20:25.099Z,97939.23
2018-07-30T05:22:53.502Z,97941.78
2018-07-30T05:25:21.763Z,97940.12
2018-07-30T05:27:50.306Z,97932.59
2018-07-30T05:30:18.497Z,97935.22
2018-07-30T05:32:46.718Z,97936.75
2018-07-30T05:35:14.905Z,97938.76
2018-07-30T05:37:43.116Z,97941.89
2018-07-30T05:40:11.655Z,97940.56
2018-07-30T05:42:39.912Z,97938.20
2018-07-30T05:45:08.221Z,97944.59
2018-07-30T05:47:36.435Z,97948.75
2018-07-30T05:50:04.994Z,97949.97
2018-07-30T05:52:33.153Z,97945.76
2018-07-30T05:55:01.537Z,97950.70
2018-07-30T05:57:29.764Z,97953.23
2018-07-30T05:59:57.945Z,97954.52
2018-07-30T06:02:26.535Z,97964.70
2018-07-30T06:04:54.721Z,97962.45
2018-07-30T06:07:22.912Z,97969.36
2018-07-30T06:09:51.878Z,97959.70
2018-07-30T06:12:20.050Z,97960.01
2018-07-30T06:14:48.218Z,97960.88
2018-07-30T06:17:16.414Z,97959.50
2018-07-30T06:19:44.578Z,97969.80
2018-07-30T06:22:12.834Z,97968.30
2018-07-30T06:24:41.022Z,97964.27
2018-07-30T06:27:09.274Z,97960.90
2018-07-30T06:29:37.453Z,97967.52
2018-07-30T06:32:05.635Z,97963.88
2018-07-30T06:34:33.813Z,97966.34
2018-07-30T06:37:02.085Z,97967.49
2018-07-30T06:39:30.369Z,97971.70
2018-07-30T06:41:58.678Z,97971.74
2018-07-30T06:44:26.834Z,97973.99
2018-07-30T06:46:55.033Z,97972.81
2018-07-30T06:49:23.222Z,97976.78
2018-07-30T06:51:51.418Z,97984.70
2018-07-30T06:54:19.964Z,97979.95
2018-07-30T06:56:48.125Z,97985.98
2018-07-30T06:59:17.867Z,97980.75
2018-07-30T07:01:46.061Z,97978.07
2018-07-30T07:04:14.233Z,97984.16
2018-07-30T07:06:42.411Z,97985.03
2018-07-30T07:09:11.267Z,97987.42
2018-07-30T07:11:39.736Z,97989.05
2018-07-30T07:14:08.107Z,97994.25
2018-07-30T07:16:36.415Z,97995.36
2018-07-30T07:19:04.605Z,97996.38
2018-07-30T07:21:32.851Z,97996.71
2018-07-30T07:24:01.643Z,97991.69
2018-07-30T07:26:29.979Z,97998.25
2018-07-30T07:28:58.226Z,97992.86
2018-07-30T07:31:26.548Z,97996.02
2018-07-30T07:33:54.778Z,97988.47
2018-07-30T07:36:22.994Z,97988.58
2018-07-30T07:38:51.238Z,97988.76
2018-07-30T07:41:19.638Z,97993.94
2018-07-30T07:43:48.122Z,97995.27
2018-07-30T07:46:16.400Z,97988.34
2018-07-30T07:48:45.253Z,97990.34
2018-07-30T07:51:13.517Z,97997.52
2018-07-30T07:53:41.732Z,97992.30
2018-07-30T07:56:09.966Z,97983.11
2018-07-30T07:58:38.155Z,97986.76
2018-07-30T08:01:06.361Z,97986.28
2018-07-30T08:03:34.617Z,97985.32
2018-07-30T08:06:02.927Z,97992.29
2018-07-30T08:08:31.441Z,97991.89
2018-07-30T08:10:59.839Z,97992.30
2018-07-30T08:13:28.027Z,97985.98
2018-07-30T08:15:56.226Z,97995.63
2018-07-30T08:18:31.209Z,97988.92
2018-07-30T08:20:59.411Z,97983.16
2018-07-30T08:23:27.694Z,97983.59
2018-07-30T08:25:55.886Z,97991.95
2018-07-30T08:28:24.483Z,97993.52
2018-07-30T08:30:52.652Z,97987.31
2018-07-30T08:33:20.902Z,97999.53
2018-07-30T08:35:49.100Z,97992.60
2018-07-30T08:38:17.578Z,97996.98
2018-07-30T08:40:45.830Z,97988.73
2018-07-30T08:43:14.104Z,97992.19
2018-07-30T08:45:42.305Z,97991.62
2018-07-30T08:48:10.695Z,97992.33
2018-07-30T08:50:38.949Z,97988.63
2018-07-30T08:53:07.231Z,97991.20
2018-07-30T08:55:35.556Z,97993.42
2018-07-30T08:58:03.747Z,97989.23
2018-07-30T09:00:32.021Z,97986.28
2018-07-30T09:03:00.258Z,97986.77
2018-07-30T09:05:28.443Z,97988.25
2018-07-30T09:07:56.742Z,97994.13
2018-07-30T09:10:24.983Z,97987.14
2018-07-30T09:12:53.367Z,97988.47
2018-07-30T09:15:23.228Z,97988.39
2018-07-30T09:17:51.461Z,97981.25
2018-07-30T09:20:19.774Z,97988.02
2018-07-30T09:22:48.041Z,97984.28
2018-07-30T09:25:16.333Z,97979.19
2018-07-30T09:27:44.629Z,97975.05
2018-07-30T09:30:12.889Z,97978.05
2018-07-30T09:32:41.189Z,97975.29
2018-07-30T09:35:09.439Z,97977.88
2018-07-30T09:37:38.405Z,97972.70
2018-07-30T09:40:06.941Z,97975.13
2018-07-30T09:42:35.182Z,97971.63
2018-07-30T09:45:03.432Z,97968.87
2018-07-30T09:47:31.753Z,97971.44
2018-07-30T09:50:00.009Z,97965.19
2018-07-30T09:52:28.282Z,97970.33
2018-07-30T09:54:56.508Z,97966.44
2018-07-30T09:57:24.749Z,97964.08
2018-07-30T09:59:52.953Z,97966.40
2018-07-30T10:02:22.313Z,97959.02
2018-07-30T10:04:50.785Z,97961.38
2018-07-30T10:07:19.072Z,97960.59
2018-07-30T10:09:47.547Z,97964.34
2018-07-30T10:12:15.829Z,97953.38
2018-07-30T10:14:44.036Z,97946.95
2018-07-30T10:17:12.228Z,97960.97
2018-07-30T10:19:40.581Z,97944.13
2018-07-30T10:22:08.813Z,97947.52
2018-07-30T10:24:37.361Z,97952.98
2018-07-30T10:27:05.561Z,97951.03
2018-07-30T10:29:33.858Z,97940.57
2018-07-30T10:32:02.893Z,97942.92
2018-07-30T10:34:31.283Z,97950.95
2018-07-30T10:36:59.472Z,97947.86
2018-07-30T10:39:27.744Z,97941.41
2018-07-30T10:41:55.997Z,97934.05
2018-07-30T10:44:30.790Z,97938.62
2018-07-30T10:46:58.991Z,97941.77
2018-07-30T10:49:33.610Z,97942.26
2018-07-30T10:52:01.862Z,97940.44
2018-07-30T10:54:30.127Z,97936.81
2018-07-30T10:56:58.744Z,97932.19
2018-07-30T10:59:27.033Z,97932.95
2018-07-30T11:01:55.283Z,97937.71
2018-07-30T11:04:23.555Z,97939.69
2018-07-30T11:06:51.751Z,97925.38
2018-07-30T11:09:19.953Z,97925.52
2018-07-30T11:11:48.169Z,97928.17
2018-07-30T11:14:16.777Z,97918.53
2018-07-30T11:16:45.353Z,97915.33
2018-07-30T11:19:13.663Z,97924.20
2018-07-30T11:21:41.959Z,97916.05
2018-07-30T11:24:10.210Z,97912.53
2018-07-30T11:26:38.434Z,97906.72
2018-07-30T11:29:06.630Z,97912.27
2018-07-30T11:31:35.332Z,97913.69
2018-07-30T11:34:04.048Z,97922.56
2018-07-30T11:36:32.230Z,97915.63
2018-07-30T11:39:00.420Z,97910.58
2018-07-30T11:41:28.640Z,97901.08
2018-07-30T11:43:56.874Z,97899.33
2018-07-30T11:46:25.290Z,97895.03
2018-07-30T11:48:53.550Z,97899.59
2018-07-30T11:51:21.746Z,97897.14
2018-07-30T11:53:49.916Z,97903.16
2018-07-30T11:56:18.144Z,97898.67
2018-07-30T11:58:46.750Z,97896.20
2018-07-30T12:01:14.937Z,97898.23
2018-07-30T12:03:43.250Z,97891.59
2018-07-30T12:06:11.789Z,97892.39
2018-07-30T12:08:39.954Z,97879.92
2018-07-30T12:11:08.390Z,97882.17
2018-07-30T12:13:36.659Z,97880.46
2018-07-30T12:16:04.875Z,97877.65
2018-07-30T12:18:33.174Z,97878.66
2018-07-30T12:21:01.498Z,97877.80
2018-07-30T12:23:29.735Z,97880.98
2018-07-30T12:25:57.988Z,97878.70
2018-07-30T12:28:26.957Z,97877.98
2018-07-30T12:30:55.225Z,97874.18
2018-07-30T12:33:23.767Z,97875.50
2018-07-30T12:35:52.025Z,97875.09
2018-07-30T12:38:20.297Z,97875.22
2018-07-30T12:40:48.472Z,97869.19
2018-07-30T12:43:16.632Z,97860.44
2018-07-30T12:45:47.123Z,97854.65
2018-07-30T12:48:15.491Z,97858.08
2018-07-30T12:50:43.774Z,97863.98
2018-07-30T12:53:11.992Z,97851.78
2018-07-30T12:55:40.167Z,97849.14
2018-07-30T12:58:08.377Z,97846.41
2018-07-30T13:00:36.755Z,97842.40
2018-07-30T13:03:05.103Z,97839.25
2018-07-30T13:05:33.561Z,97824.38
2018-07-30T13:08:01.735Z,97819.88
2018-07-30T13:10:29.929Z,97808.31
2018-07-30T13:12:58.449Z,97804.88
2018-07-30T13:15:27.897Z,97805.80
2018-07-30T13:18:03.149Z,97799.48
2018-07-30T13:20:31.419Z,97787.47
2018-07-30T13:22:59.593Z,97786.64
2018-07-30T13:25:27.854Z,97773.88
2018-07-30T13:27:56.032Z,97779.71
2018-07-30T13:30:24.226Z,97774.05
2018-07-30T13:32:52.422Z,97775.28
2018-07-30T13:35:20.647Z,97768.47
2018-07-30T13:37:48.804Z,97774.70
2018-07-30T13:40:17.032Z,97767.23
2018-07-30T13:42:45.248Z,97762.09
2018-07-30T13:45:13.474Z,97760.95
2018-07-30T13:47:41.660Z,97761.16
2018-07-30T13:50:10.847Z,97760.68
2018-07-30T13:52:39.162Z,97755.58
2018-07-30T13:55:07.872Z,97750.76
2018-07-30T13:57:36.419Z,97752.84
2018-07-30T14:00:06.518Z,97748.36
2018-07-30T14:02:34.706Z,97750.00
2018-07-30T14:05:02.910Z,97748.51
2018-07-30T14:07:31.070Z,97751.89
2018-07-30T14:10:06.438Z,97753.53
2018-07-30T14:12:34.652Z,97746.25
2018-07-30T14:15:04.224Z,97741.89
2018-07-30T14:17:32.541Z,97739.67
2018-07-30T14:20:01.276Z,97734.42
2018-07-30T14:22:29.477Z,97735.38
2018-07-30T14:24:57.691Z,97733.39
2018-07-30T14:27:25.979Z,97733.62
2018-07-30T14:29:54.233Z,97740.01
2018-07-30T14:32:22.517Z,97731.36
2018-07-30T14:34:50.777Z,97739.83
2018-07-30T14:37:19.305Z,97733.62
2018-07-30T14:39:47.470Z,97729.70
2018-07-30T14:42:15.729Z,97733.25
2018-07-30T14:44:44.278Z,97732.38
2018-07-30T14:47:12.466Z,97733.47
2018-07-30T14:49:40.696Z,97733.40
2018-07-30T14:52:08.914Z,97728.22
2018-07-30T14:54:37.076Z,97729.28
2018-07-30T14:57:05.299Z,97718.86
2018-07-30T14:59:33.569Z,97718.23
2018-07-30T15:02:01.702Z,97713.58
2018-07-30T15:04:29.870Z,97711.88
2018-07-30T15:06:58.299Z,97710.45
2018-07-30T15:09:26.537Z,97699.23
2018-07-30T15:11:54.706Z,97690.33
2018-07-30T15:14:22.946Z,97685.30
2018-07-30T15:16:51.158Z,97675.50
2018-07-30T15:19:19.787Z,97679.25
2018-07-30T15:21:47.937Z,97681.14
2018-07-30T15:24:16.110Z,97682.42
2018-07-30T15:26:44.281Z,97681.41
2018-07-30T15:29:12.741Z,97694.43
2018-07-30T15:31:41.033Z,97692.39
2018-07-30T15:34:09.303Z,97690.57
2018-07-30T15:36:37.489Z,97692.50
2018-07-30T15:39:08.569Z,97697.61
2018-07-30T15:41:36.747Z,97688.12
2018-07-30T15:44:04.993Z,97682.27
2018-07-30T15:46:33.275Z,97684.97
2018-07-30T15:49:01.537Z,97679.25
2018-07-30T15:51:29.807Z,97678.33
2018-07-30T15:53:58.025Z,97676.64
2018-07-30T15:56:26.664Z,97681.42
2018-07-30T15:58:54.844Z,97678.95
2018-07-30T16:01:23.418Z,97685.45
2018-07-30T16:03:51.600Z,97680.41
2018-07-30T16:06:19.814Z,97686.48
2018-07-30T16:08:48.042Z,97686.52
2018-07-30T16:11:16.325Z,97681.95
2018-07-30T16:13:45.186Z,97677.37
2018-07-30T16:16:13.476Z,97680.25
2018-07-30T16:18:41.738Z,97678.17
2018-07-30T16:21:09.909Z,97678.15
2018-07-30T16:23:38.124Z,97681.47
2018-07-30T16:26:06.365Z,97683.17
2018-07-30T16:28:34.615Z,97679.52
2018-07-30T16:31:02.833Z,97686.52
2018-07-30T16:33:31.091Z,97684.48
2018-07-30T16:35:59.695Z,97688.64
2018-07-30T16:38:27.899Z,97689.93
2018-07-30T16:40:56.125Z,97689.41
2018-07-30T16:43:24.401Z,97693.47
2018-07-30T16:45:52.620Z,97693.52
2018-07-30T16:48:20.870Z,97692.31
2018-07-30T16:50:49.368Z,97691.45
2018-07-30T16:53:17.981Z,97691.57
2018-07-30T16:55:46.282Z,97692.59
2018-07-30T16:58:14.462Z,97691.49
2018-07-30T17:00:42.694Z,97690.08
2018-07-30T17:03:10.963Z,97690.14
2018-07-30T17:05:39.113Z,97689.87
2018-07-30T17:08:07.313Z,97688.61
2018-07-30T17:10:35.486Z,97696.36
2018-07-30T17:13:03.713Z,97693.50
2018-07-30T17:15:31.917Z,97695.33
2018-07-30T17:18:00.460Z,97692.23
2018-07-30T17:20:28.753Z,97693.52
2018-07-30T17:22:57.065Z,97697.78
2018-07-30T17:25:25.293Z,97696.22
2018-07-30T17:27:53.465Z,97699.33
2018-07-30T17:30:21.673Z,97698.62
2018-07-30T17:32:49.861Z,97708.27
2018-07-30T17:35:18.107Z,97705.30
2018-07-30T17:37:46.365Z,97706.46
2018-07-30T17:40:14.769Z,97709.66
2018-07-30T17:42:43.131Z,97712.10
2018-07-30T17:45:13.814Z,97713.36
2018-07-30T17:47:42.912Z,97711.15
2018-07-30T17:50:11.293Z,97707.84
2018-07-30T17:52:39.678Z,97713.34
2018-07-30T17:55:08.722Z,97716.52
2018-07-30T17:57:37.198Z,97716.38
2018-07-30T18:00:07.262Z,97725.38
2018-07-30T18:02:35.478Z,97723.20
2018-07-30T18:05:03.722Z,97721.95
2018-07-30T18:07:32.120Z,97723.64
2018-07-30T18:10:00.418Z,97726.36
2018-07-30T18:12:28.683Z,97725.77
2018-07-30T18:14:56.902Z,97734.03
2018-07-30T18:17:25.297Z,97736.54
2018-07-30T18:19:53.848Z,97734.12
2018-07-30T18:22:22.117Z,97734.91
2018-07-30T18:24:50.350Z,97740.92
2018-07-30T18:27:18.840Z,97750.39
2018-07-30T18:29:47.061Z,97746.48
2018-07-30T18:32:15.315Z,97752.23
2018-07-30T18:34:43.618Z,97756.50
2018-07-30T18:37:11.858Z,97758.64
2018-07-30T18:39:40.163Z,97759.72
2018-07-30T18:42:08.402Z,97770.89
2018-07-30T18:44:36.605Z,97769.43
2018-07-30T18:47:05.014Z,97766.54
2018-07-30T18:49:33.265Z,97773.50
2018-07-30T18:52:01.480Z,97767.51
2018-07-30T18:54:29.697Z,97776.13
2018-07-30T18:56:57.885Z,97772.44
2018-07-30T18:59:26.336Z,97779.56
2018-07-30T19:01:54.887Z,97778.83
2018-07-30T19:04:23.198Z,97788.31
2018-07-30T19:06:51.464Z,97791.13
2018-07-30T19:09:20.075Z,97792.75
2018-07-30T19:11:48.327Z,97800.95
2018-07-30T19:14:16.554Z,97798.95
2018-07-30T19:16:44.768Z,97805.37
2018-07-30T19:19:13.110Z,97810.39
2018-07-30T19:21:41.342Z,97811.41
2018-07-30T19:24:09.668Z,97811.05
2018-07-30T19:26:37.951Z,97811.50
2018-07-30T19:29:06.730Z,97814.11
2018-07-30T19:31:34.954Z,97818.91
2018-07-30T19:34:03.135Z,97826.61
2018-07-30T19:36:31.402Z,97827.13
2018-07-30T19:38:59.890Z,97832.28
2018-07-30T19:41:28.069Z,97834.30
2018-07-30T19:43:56.271Z,97842.25
2018-07-30T19:46:24.553Z,97843.06
2018-07-30T19:48:52.775Z,97843.83
2018-07-30T19:51:21.053Z,97847.41
2018-07-30T19:53:49.593Z,97849.14
2018-07-30T19:56:17.901Z,97853.19
2018-07-30T19:58:46.312Z,97855.84
2018-07-30T20:01:14.411Z,97860.83
2018-07-30T20:03:42.639Z,97858.94
2018-07-30T20:06:10.840Z,97859.98
2018-07-30T20:08:39.332Z,97857.69
2018-07-30T20:11:08.408Z,97856.67
2018-07-30T20:13:36.607Z,97860.77
2018-07-30T20:16:04.832Z,97860.41
2018-07-30T20:18:33.099Z,97860.86
2018-07-30T20:21:01.402Z,97867.11
2018-07-30T20:23:31.921Z,97866.53
2018-07-30T20:26:00.280Z,97861.23
2018-07-30T20:28:29.024Z,97867.92
2018-07-30T20:30:57.302Z,97877.05
2018-07-30T20:33:26.076Z,97882.47
2018-07-30T20:35:54.574Z,97882.27
2018-07-30T20:38:22.762Z,97885.62
2018-07-30T20:40:51.441Z,97885.91
2018-07-30T20:43:20.011Z,97885.89
2018-07-30T20:45:48.286Z,97893.12
2018-07-30T20:48:16.510Z,97893.09
2018-07-30T20:50:44.969Z,97887.49
2018-07-30T20:53:13.178Z,97893.37
2018-07-30T20:55:41.393Z,97895.89
2018-07-30T20:58:10.437Z,97899.20
2018-07-30T21:00:38.641Z,97905.42
2018-07-30T21:03:06.829Z,97898.45
2018-07-30T21:05:40.433Z,97902.03
2018-07-30T21:08:08.713Z,97907.65
2018-07-30T21:10:38.127Z,97907.36
2018-07-30T21:13:06.449Z,97908.31
2018-07-30T21:15:34.691Z,97916.55
2018-07-30T21:18:02.865Z,97912.09
2018-07-30T21:20:31.083Z,97914.56
2018-07-30T21:22:59.380Z,97920.66
2018-07-30T21:25:27.600Z,97911.63
2018-07-30T21:27:55.806Z,97912.44
2018-07-30T21:30:24.258Z,97919.02
2018-07-30T21:32:53.102Z,97916.22
2018-07-30T21:35:21.493Z,97920.33
2018-07-30T21:37:49.914Z,97921.44
2018-07-30T21:40:18.213Z,97918.84
2018-07-30T21:42:46.478Z,97923.13
2018-07-30T21:45:15.014Z,97920.08
2018-07-30T21:47:43.189Z,97926.08
2018-07-30T21:50:11.542Z,97922.77
2018-07-30T21:52:39.705Z,97927.27
2018-07-30T21:55:07.900Z,97930.42
2018-07-30T21:57:36.094Z,97933.88
2018-07-30T22:00:05.665Z,97931.32
2018-07-30T22:02:33.942Z,97926.52
2018-07-30T22:05:02.133Z,97933.06
2018-07-30T22:07:30.321Z,97934.73
2018-07-30T22:09:58.573Z,97935.80
2018-07-30T22:12:26.848Z,97939.38
2018-07-30T22:14:55.649Z,97937.37
2018-07-30T22:17:23.822Z,97940.05
2018-07-30T22:19:52.025Z,97938.38
2018-07-30T22:22:20.310Z,97931.73
2018-07-30T22:24:48.495Z,97933.30
2018-07-30T22:27:16.695Z,97931.53
2018-07-30T22:29:44.906Z,97934.66
2018-07-30T22:32:13.112Z,97933.53
2018-07-30T22:34:41.660Z,97922.94
2018-07-30T22:37:09.857Z,97928.66
2018-07-30T22:39:38.046Z,97929.77
2018-07-30T22:42:06.254Z,97930.78
2018-07-30T22:44:34.421Z,97933.30
2018-07-30T22:47:02.626Z,97940.20
2018-07-30T22:49:30.841Z,97941.88
2018-07-30T22:51:59.015Z,97932.43
2018-07-30T22:54:27.285Z,97933.31
2018-07-30T22:56:55.557Z,97941.52
2018-07-30T22:59:23.957Z,97934.64
2018-07-30T23:01:52.205Z,97939.44
2018-07-30T23:04:20.401Z,97931.05
2018-07-30T23:06:48.661Z,97935.33
2018-07-30T23:09:16.851Z,97937.84
2018-07-30T23:11:45.123Z,97940.73
2018-07-30T23:14:13.534Z,97936.45
2018-07-30T23:16:41.813Z,97936.55
2018-07-30T23:19:10.053Z,97936.11
2018-07-30T23:21:38.473Z,97936.81
2018-07-30T23:24:06.630Z,97937.36
2018-07-30T23:26:34.818Z,97939.29
2018-07-30T23:29:03.323Z,97935.11
2018-07-30T23:31:31.478Z,97934.86
2018-07-30T23:34:00.028Z,97936.09
2018-07-30T23:36:28.428Z,97932.95
2018-07-30T23:38:56.696Z,97932.84
2018-07-30T23:41:24.966Z,97935.67
2018-07-30T23:43:53.189Z,97934.50
2018-07-30T23:46:21.366Z,97933.73
2018-07-30T23:48:49.544Z,97931.21
2018-07-30T23:51:17.733Z,97934.84
2018-07-30T23:53:45.930Z,97937.63
2018-07-30T23:56:14.193Z,97934.95
2018-07-30T23:58:42.466Z,97929.48
